createdAt,value
2023-03-13T00:01:14.808Z,5.40
2023-03-13T00:03:42.016Z,5.95
2023-03-13T00:06:09.421Z,4.93
2023-03-13T00:08:36.447Z,5.28
2023-03-13T00:11:05.530Z,5.93
2023-03-13T00:13:32.826Z,4.85
2023-03-13T00:16:06.271Z,5.65
2023-03-13T00:18:33.471Z,5.45
2023-03-13T00:21:06.312Z,5.20
2023-03-13T00:23:34.840Z,5.30
2023-03-13T00:26:07.887Z,4.80
2023-03-13T00:28:36.919Z,4.60
2023-03-13T00:31:08.130Z,5.65
2023-03-13T00:33:36.554Z,5.03
2023-03-13T00:36:06.517Z,6.45
2023-03-13T00:38:33.804Z,5.13
2023-03-13T00:41:13.932Z,5.35
2023-03-13T00:43:42.592Z,6.28
2023-03-13T00:46:10.624Z,5.93
2023-03-13T00:48:38.389Z,5.72
2023-03-13T00:51:06.067Z,6.10
2023-03-13T00:53:33.072Z,5.75
2023-03-13T00:56:04.773Z,5.85
2023-03-13T00:58:34.789Z,5.63
2023-03-13T01:01:10.858Z,5.63
2023-03-13T01:03:40.515Z,5.05
2023-03-13T01:06:11.312Z,5.93
2023-03-13T01:08:38.511Z,4.95
2023-03-13T01:11:09.149Z,5.43
2023-03-13T01:13:37.286Z,5.18
2023-03-13T01:16:07.409Z,4.95
2023-03-13T01:18:35.901Z,4.80
2023-03-13T01:21:03.617Z,5.07
2023-03-13T01:23:31.237Z,5.07
2023-03-13T01:25:58.893Z,4.40
2023-03-13T01:28:26.466Z,4.55
2023-03-13T01:30:54.556Z,4.47
2023-03-13T01:33:21.665Z,3.97
2023-03-13T01:35:48.614Z,4.03
2023-03-13T01:38:15.571Z,4.95
2023-03-13T01:40:43.779Z,4.30
2023-03-13T01:43:26.589Z,4.55
2023-03-13T01:46:04.338Z,4.65
2023-03-13T01:49:16.115Z,4.63
2023-03-13T01:52:14.722Z,4.05
2023-03-13T01:55:01.644Z,4.55
2023-03-13T01:57:52.763Z,5.43
2023-03-13T02:00:30.156Z,4.70
2023-03-13T02:03:01.154Z,5.47
2023-03-13T02:05:31.282Z,5.60
2023-03-13T02:08:01.502Z,5.22
2023-03-13T02:10:31.189Z,5.03
2023-03-13T02:13:00.963Z,4.40
2023-03-13T02:15:28.330Z,4.88
2023-03-13T02:17:56.273Z,5.10
2023-03-13T02:20:24.760Z,4.90
2023-03-13T02:23:10.011Z,5.07
2023-03-13T02:26:03.481Z,5.30
2023-03-13T02:28:39.181Z,4.95
2023-03-13T02:31:10.670Z,6.22
2023-03-13T02:33:41.115Z,5.72
2023-03-13T02:36:13.352Z,6.15
2023-03-13T02:38:56.882Z,6.45
2023-03-13T02:41:26.872Z,5.72
2023-03-13T02:43:55.227Z,5.93
2023-03-13T02:46:22.508Z,6.35
2023-03-13T02:48:57.352Z,6.13
2023-03-13T02:51:35.954Z,6.43
2023-03-13T02:54:07.234Z,5.55
2023-03-13T02:56:37.659Z,5.80
2023-03-13T02:59:05.417Z,6.50
2023-03-13T03:01:32.980Z,6.63
2023-03-13T03:04:00.191Z,6.05
2023-03-13T03:06:27.078Z,7.22
2023-03-13T03:08:55.675Z,5.93
2023-03-13T03:11:23.195Z,6.18
2023-03-13T03:13:56.219Z,6.85
2023-03-13T03:16:23.657Z,5.80
2023-03-13T03:18:50.557Z,6.53
2023-03-13T03:21:17.636Z,6.18
2023-03-13T03:23:44.534Z,6.47
2023-03-13T03:26:11.411Z,6.78
2023-03-13T03:28:39.230Z,5.80
2023-03-13T03:31:13.571Z,5.32
2023-03-13T03:33:42.020Z,5.82
2023-03-13T03:36:14.879Z,5.30
2023-03-13T03:38:43.876Z,5.13
2023-03-13T03:41:16.938Z,4.78
2023-03-13T03:43:44.239Z,5.28
2023-03-13T03:46:14.825Z,4.57
2023-03-13T03:48:42.436Z,4.65
2023-03-13T03:51:11.453Z,5.07
2023-03-13T03:53:41.184Z,4.22
2023-03-13T03:56:08.691Z,4.60
2023-03-13T03:58:39.884Z,4.45
2023-03-13T04:01:27.102Z,5.20
2023-03-13T04:03:54.141Z,4.35
2023-03-13T04:06:21.130Z,4.10
2023-03-13T04:08:48.497Z,4.88
2023-03-13T04:11:18.414Z,4.45
2023-03-13T04:13:50.141Z,5.05
2023-03-13T04:16:17.214Z,4.40
2023-03-13T04:18:45.619Z,4.63
2023-03-13T04:21:12.664Z,4.38
2023-03-13T04:23:57.298Z,4.30
2023-03-13T04:26:25.038Z,4.40
2023-03-13T04:28:54.080Z,4.35
2023-03-13T04:31:33.555Z,3.97
2023-03-13T04:34:15.594Z,4.03
2023-03-13T04:36:52.912Z,4.28
2023-03-13T04:42:21.820Z,4.28
2023-03-13T04:44:54.532Z,3.90
2023-03-13T04:47:39.201Z,4.65
2023-03-13T04:50:28.615Z,4.03
2023-03-13T04:53:11.452Z,4.57
2023-03-13T04:56:05.065Z,4.70
2023-03-13T04:58:52.181Z,4.25
2023-03-13T05:01:46.164Z,3.88
2023-03-13T05:04:21.267Z,4.32
2023-03-13T05:07:20.485Z,4.40
2023-03-13T05:10:05.186Z,4.43
2023-03-13T05:12:50.623Z,4.28
2023-03-13T05:15:53.016Z,4.05
2023-03-13T05:18:22.790Z,4.47
2023-03-13T05:21:04.742Z,3.97
2023-03-13T05:23:50.415Z,4.30
2023-03-13T05:26:46.583Z,4.20
2023-03-13T05:29:42.551Z,4.47
2023-03-13T05:32:41.865Z,4.95
2023-03-13T05:35:23.066Z,4.63
2023-03-13T05:38:02.205Z,4.53
2023-03-13T05:40:48.667Z,5.22
2023-03-13T05:43:34.164Z,4.43
2023-03-13T05:46:22.806Z,4.25
2023-03-13T05:48:57.573Z,4.78
2023-03-13T05:51:43.020Z,4.60
2023-03-13T05:54:42.285Z,5.32
2023-03-13T05:57:25.283Z,5.18
2023-03-13T06:00:07.798Z,5.00
2023-03-13T06:02:44.839Z,5.05
2023-03-13T06:05:16.696Z,5.85
2023-03-13T06:07:44.972Z,5.18
2023-03-13T06:10:12.523Z,5.78
2023-03-13T06:12:39.767Z,4.78
2023-03-13T06:15:12.102Z,5.65
2023-03-13T06:17:55.843Z,5.00
2023-03-13T06:20:22.906Z,5.13
2023-03-13T06:22:49.715Z,5.53
2023-03-13T06:25:16.668Z,5.25
2023-03-13T06:27:43.476Z,5.00
2023-03-13T06:30:11.033Z,5.45
2023-03-13T06:32:38.189Z,4.18
2023-03-13T06:35:05.968Z,4.43
2023-03-13T06:37:33.725Z,4.65
2023-03-13T06:40:00.904Z,3.85
2023-03-13T06:42:27.743Z,4.78
2023-03-13T06:44:54.615Z,4.63
2023-03-13T06:47:21.546Z,4.20
2023-03-13T06:49:48.528Z,3.80
2023-03-13T06:52:15.332Z,4.30
2023-03-13T06:54:42.353Z,4.30
2023-03-13T06:57:09.189Z,3.70
2023-03-13T06:59:36.134Z,4.57
2023-03-13T07:02:03.416Z,4.18
2023-03-13T07:04:30.308Z,3.70
2023-03-13T07:06:57.125Z,4.07
2023-03-13T07:09:24.096Z,4.22
2023-03-13T07:11:50.987Z,4.20
2023-03-13T07:14:18.120Z,4.55
2023-03-13T07:16:46.285Z,3.50
2023-03-13T07:19:13.753Z,4.05
2023-03-13T07:21:40.828Z,3.85
2023-03-13T07:24:08.076Z,3.60
2023-03-13T07:26:35.005Z,3.58
2023-03-13T07:29:01.995Z,3.47
2023-03-13T07:31:30.378Z,3.63
2023-03-13T07:33:57.368Z,3.15
2023-03-13T07:36:24.436Z,3.40
2023-03-13T07:38:52.631Z,3.08
2023-03-13T07:41:20.299Z,2.40
2023-03-13T07:43:47.586Z,3.30
2023-03-13T07:46:18.754Z,3.03
2023-03-13T07:48:46.584Z,2.55
2023-03-13T07:51:23.251Z,2.53
2023-03-13T07:53:53.084Z,3.13
2023-03-13T07:56:22.484Z,2.47
2023-03-13T07:58:50.416Z,3.22
2023-03-13T08:01:20.393Z,2.20
2023-03-13T08:03:50.646Z,3.05
2023-03-13T08:06:23.469Z,2.30
2023-03-13T08:08:51.354Z,2.35
2023-03-13T08:11:25.120Z,2.60
2023-03-13T08:13:53.756Z,2.13
2023-03-13T08:16:25.644Z,2.05
2023-03-13T08:18:55.070Z,2.00
2023-03-13T08:21:24.733Z,2.40
2023-03-13T08:23:58.045Z,1.92
2023-03-13T08:26:27.964Z,2.58
2023-03-13T08:29:03.548Z,2.20
2023-03-13T08:31:33.308Z,2.38
2023-03-13T08:34:00.784Z,2.05
2023-03-13T08:36:38.181Z,1.88
2023-03-13T08:39:16.829Z,2.05
2023-03-13T08:41:44.037Z,2.15
2023-03-13T08:44:13.852Z,2.05
2023-03-13T08:46:41.660Z,1.70
2023-03-13T08:49:09.620Z,2.13
2023-03-13T08:51:37.195Z,1.70
2023-03-13T08:54:04.717Z,1.60
2023-03-13T08:56:32.316Z,1.98
2023-03-13T08:59:01.286Z,2.10
2023-03-13T09:01:33.586Z,1.88
2023-03-13T09:04:04.002Z,1.63
2023-03-13T09:06:33.480Z,1.90
2023-03-13T09:09:00.980Z,1.92
2023-03-13T09:11:28.164Z,2.45
2023-03-13T09:13:56.299Z,2.55
2023-03-13T09:16:24.684Z,2.20
2023-03-13T09:18:52.314Z,2.60
2023-03-13T09:21:21.902Z,2.70
2023-03-13T09:23:49.295Z,2.67
2023-03-13T09:26:17.693Z,2.70
2023-03-13T09:28:44.742Z,2.67
2023-03-13T09:31:17.321Z,2.58
2023-03-13T09:33:45.885Z,2.53
2023-03-13T09:36:13.358Z,2.10
2023-03-13T09:38:40.529Z,1.98
2023-03-13T09:41:35.616Z,2.13
2023-03-13T09:44:08.577Z,2.72
2023-03-13T09:46:53.487Z,2.65
2023-03-13T09:49:23.610Z,2.47
2023-03-13T09:51:56.662Z,2.55
2023-03-13T09:54:30.307Z,2.85
2023-03-13T09:57:03.661Z,2.60
2023-03-13T09:59:46.766Z,2.58
2023-03-13T10:02:35.256Z,3.00
2023-03-13T10:05:29.398Z,3.10
2023-03-13T10:08:18.725Z,2.65
2023-03-13T10:11:08.215Z,2.97
2023-03-13T10:13:41.460Z,3.08
2023-03-13T10:16:11.608Z,3.28
2023-03-13T10:18:39.210Z,3.55
2023-03-13T10:21:17.489Z,3.38
2023-03-13T10:24:13.222Z,3.40
2023-03-13T10:26:40.323Z,3.45
2023-03-13T10:29:23.539Z,4.10
2023-03-13T10:32:02.102Z,3.33
2023-03-13T10:35:00.516Z,3.63
2023-03-13T10:37:31.911Z,3.67
2023-03-13T10:40:25.696Z,3.88
2023-03-13T10:42:59.672Z,4.35
2023-03-13T10:45:27.414Z,4.05
2023-03-13T10:47:56.093Z,3.42
2023-03-13T10:50:28.490Z,3.88
2023-03-13T10:52:55.416Z,3.13
2023-03-13T10:55:24.807Z,3.28
2023-03-13T10:58:03.569Z,3.65
2023-03-13T11:00:36.186Z,3.05
2023-03-13T11:03:18.587Z,3.55
2023-03-13T11:05:56.782Z,3.80
2023-03-13T11:08:27.537Z,3.78
2023-03-13T11:10:58.745Z,3.63
2023-03-13T11:13:36.512Z,3.88
2023-03-13T11:16:29.426Z,4.97
2023-03-13T11:19:14.539Z,4.60
2023-03-13T11:22:10.824Z,4.93
2023-03-13T11:27:22.364Z,3.40
2023-03-13T11:29:52.231Z,4.72
2023-03-13T11:32:31.009Z,4.47
2023-03-13T11:35:02.112Z,4.57
2023-03-13T11:37:33.077Z,4.60
2023-03-13T11:40:16.443Z,3.95
2023-03-13T11:43:24.957Z,4.35
2023-03-13T11:45:55.771Z,4.65
2023-03-13T11:48:40.630Z,4.13
2023-03-13T11:51:26.321Z,4.50
2023-03-13T11:53:53.160Z,4.97
2023-03-13T11:56:31.960Z,5.10
2023-03-13T11:59:17.048Z,4.68
2023-03-13T12:01:57.474Z,5.10
2023-03-13T12:04:39.878Z,4.68
2023-03-13T12:07:28.704Z,4.75
2023-03-13T12:10:19.609Z,4.40
2023-03-13T12:13:12.853Z,5.13
2023-03-13T12:15:44.578Z,5.10
2023-03-13T12:18:26.336Z,4.70
2023-03-13T12:21:04.817Z,4.93
2023-03-13T12:23:49.747Z,3.97
2023-03-13T12:26:19.854Z,4.72
2023-03-13T12:28:50.166Z,4.93
2023-03-13T12:31:36.145Z,5.22
2023-03-13T12:34:29.302Z,4.90
2023-03-13T12:37:21.649Z,5.68
2023-03-13T12:39:56.433Z,5.07
2023-03-13T12:42:58.819Z,5.90
2023-03-13T12:45:26.753Z,5.65
2023-03-13T12:48:16.954Z,6.32
2023-03-13T12:51:05.750Z,4.95
2023-03-13T12:53:41.565Z,5.50
2023-03-13T12:56:16.233Z,4.78
2023-03-13T12:58:51.668Z,5.30
2023-03-13T13:04:03.362Z,5.18
2023-03-13T13:06:50.264Z,5.90
2023-03-13T13:09:24.106Z,5.28
2023-03-13T13:11:52.384Z,5.18
2023-03-13T13:14:19.188Z,6.20
2023-03-13T13:16:54.921Z,5.03
2023-03-13T13:19:24.595Z,5.70
2023-03-13T13:22:29.042Z,4.90
2023-03-13T13:25:00.974Z,5.28
2023-03-13T13:27:36.825Z,5.68
2023-03-13T13:30:16.599Z,4.90
2023-03-13T13:32:53.039Z,5.63
2023-03-13T13:35:24.132Z,5.95
2023-03-13T13:37:51.556Z,5.65
2023-03-13T13:40:27.910Z,5.50
2023-03-13T13:43:03.992Z,4.95
2023-03-13T13:45:39.375Z,4.63
2023-03-13T13:48:32.640Z,5.13
2023-03-13T13:51:25.996Z,5.32
2023-03-13T13:53:56.270Z,4.90
2023-03-13T13:56:47.140Z,5.63
2023-03-13T13:59:25.690Z,4.75
2023-03-13T14:02:18.586Z,5.78
2023-03-13T14:04:53.659Z,5.32
2023-03-13T14:07:46.495Z,5.25
2023-03-13T14:10:37.182Z,5.40
2023-03-13T14:13:13.302Z,5.18
2023-03-13T14:15:43.898Z,5.78
2023-03-13T14:18:28.741Z,5.22
2023-03-13T14:21:02.936Z,4.90
2023-03-13T14:23:44.929Z,5.30
2023-03-13T14:26:24.660Z,5.78
2023-03-13T14:28:57.401Z,5.68
2023-03-13T14:31:30.774Z,5.32
2023-03-13T14:34:00.130Z,5.28
2023-03-13T14:36:27.602Z,5.60
2023-03-13T14:38:57.086Z,5.13
2023-03-13T14:41:37.432Z,5.65
2023-03-13T14:44:07.228Z,5.53
2023-03-13T14:46:42.146Z,5.30
2023-03-13T14:49:19.336Z,5.63
2023-03-13T14:51:49.898Z,5.55
2023-03-13T14:55:24.454Z,5.53
2023-03-13T14:58:01.497Z,5.28
2023-03-13T15:00:39.024Z,5.68
2023-03-13T15:03:20.051Z,5.40
2023-03-13T15:06:13.895Z,5.18
2023-03-13T15:08:43.645Z,5.32
2023-03-13T15:11:28.034Z,5.28
2023-03-13T15:13:55.706Z,4.82
2023-03-13T15:16:23.417Z,5.38
2023-03-13T15:18:51.773Z,5.70
2023-03-13T15:21:31.069Z,6.13
2023-03-13T15:24:10.258Z,5.97
2023-03-13T15:26:37.146Z,5.97
2023-03-13T15:29:04.595Z,5.93
2023-03-13T15:31:32.300Z,5.03
2023-03-13T15:34:00.951Z,4.88
2023-03-13T15:36:29.622Z,6.28
2023-03-13T15:38:56.586Z,5.43
2023-03-13T15:41:24.216Z,5.22
2023-03-13T15:43:52.679Z,6.03
2023-03-13T15:46:21.073Z,5.07
2023-03-13T15:48:48.107Z,5.38
2023-03-13T15:51:16.584Z,5.32
2023-03-13T15:53:44.239Z,5.65
2023-03-13T15:56:19.850Z,5.88
2023-03-13T15:58:47.749Z,5.15
2023-03-13T16:01:16.292Z,5.30
2023-03-13T16:03:43.258Z,5.78
2023-03-13T16:06:16.808Z,5.90
2023-03-13T16:08:45.112Z,5.45
2023-03-13T16:11:14.812Z,6.43
2023-03-13T16:13:41.933Z,6.55
2023-03-13T16:16:16.503Z,5.82
2023-03-13T16:18:43.526Z,6.50
2023-03-13T16:21:17.056Z,6.47
2023-03-13T16:23:44.388Z,6.22
2023-03-13T16:26:20.685Z,6.18
2023-03-13T16:28:48.161Z,6.75
2023-03-13T16:31:20.974Z,5.57
2023-03-13T16:33:49.830Z,6.35
2023-03-13T16:36:20.858Z,6.85
2023-03-13T16:38:48.693Z,5.95
2023-03-13T16:41:18.131Z,5.35
2023-03-13T16:43:45.542Z,6.53
2023-03-13T16:46:17.918Z,6.00
2023-03-13T16:48:45.754Z,6.13
2023-03-13T16:51:17.549Z,5.85
2023-03-13T16:53:46.526Z,6.13
2023-03-13T16:56:30.042Z,5.63
2023-03-13T16:58:58.349Z,5.72
2023-03-13T17:01:26.042Z,5.57
2023-03-13T17:03:53.504Z,5.68
2023-03-13T17:06:26.953Z,5.38
2023-03-13T17:08:54.337Z,5.95
2023-03-13T17:11:22.530Z,6.07
2023-03-13T17:13:51.458Z,6.07
2023-03-13T17:16:21.483Z,5.32
2023-03-13T17:18:51.572Z,6.78
2023-03-13T17:21:24.143Z,5.78
2023-03-13T17:23:51.777Z,6.38
2023-03-13T17:26:27.699Z,5.72
2023-03-13T17:28:57.360Z,6.18
2023-03-13T17:31:26.185Z,5.60
2023-03-13T17:33:53.101Z,5.80
2023-03-13T17:36:22.928Z,4.90
2023-03-13T17:38:54.443Z,5.88
2023-03-13T17:41:24.215Z,5.72
2023-03-13T17:43:51.700Z,6.75
2023-03-13T17:46:18.604Z,5.93
2023-03-13T17:48:46.885Z,5.95
2023-03-13T17:51:16.547Z,5.47
2023-03-13T17:53:43.845Z,5.68
2023-03-13T17:56:28.264Z,5.63
2023-03-13T17:59:00.358Z,5.65
2023-03-13T18:01:30.339Z,6.28
2023-03-13T18:03:57.799Z,6.18
2023-03-13T18:06:30.631Z,7.22
2023-03-13T18:09:01.680Z,5.68
2023-03-13T18:11:29.078Z,5.55
2023-03-13T18:13:56.038Z,5.85
2023-03-13T18:16:30.446Z,5.78
2023-03-13T18:18:57.565Z,5.90
2023-03-13T18:21:24.775Z,6.38
2023-03-13T18:23:53.449Z,5.65
2023-03-13T18:26:32.710Z,6.60
2023-03-13T18:29:01.165Z,6.35
2023-03-13T18:31:29.892Z,6.28
2023-03-13T18:33:58.239Z,6.95
2023-03-13T18:36:26.434Z,6.03
2023-03-13T18:38:53.849Z,6.00
2023-03-13T18:41:20.966Z,7.07
2023-03-13T18:43:48.370Z,5.53
2023-03-13T18:46:22.158Z,6.38
2023-03-13T18:48:50.316Z,6.00
2023-03-13T18:51:19.347Z,6.88
2023-03-13T18:53:46.726Z,5.70
2023-03-13T18:56:22.450Z,5.70
2023-03-13T18:58:51.022Z,7.15
2023-03-13T19:01:20.935Z,6.35
2023-03-13T19:03:48.933Z,6.03
2023-03-13T19:06:36.870Z,6.45
2023-03-13T19:09:37.729Z,10.07
2023-03-13T19:11:58.490Z,12.98
2023-03-13T19:14:25.755Z,10.20
2023-03-13T19:16:56.042Z,9.05
2023-03-13T19:19:24.270Z,10.25
2023-03-13T19:21:56.031Z,9.73
2023-03-13T19:24:26.621Z,10.95
2023-03-13T19:26:58.828Z,9.57
2023-03-13T19:29:28.210Z,9.70
2023-03-13T19:31:55.324Z,8.30
2023-03-13T19:34:22.567Z,6.43
2023-03-13T19:36:50.630Z,6.65
2023-03-13T19:39:19.917Z,6.20
2023-03-13T19:41:49.648Z,6.32
2023-03-13T19:44:18.051Z,7.10
2023-03-13T19:46:46.066Z,6.18
2023-03-13T19:49:15.129Z,6.68
2023-03-13T19:51:42.155Z,5.60
2023-03-13T19:54:12.260Z,6.30
2023-03-13T19:56:41.545Z,6.03
2023-03-13T19:59:17.893Z,6.22
2023-03-13T20:01:45.203Z,5.90
2023-03-13T20:04:12.335Z,5.75
2023-03-13T20:06:40.591Z,7.07
2023-03-13T20:09:09.777Z,6.05
2023-03-13T20:11:37.172Z,5.75
2023-03-13T20:14:04.637Z,6.22
2023-03-13T20:16:33.778Z,6.88
2023-03-13T20:19:02.675Z,6.25
2023-03-13T20:21:34.984Z,7.00
2023-03-13T20:24:02.249Z,5.97
2023-03-13T20:26:30.051Z,7.53
2023-03-13T20:28:57.402Z,5.97
2023-03-13T20:31:27.198Z,5.93
2023-03-13T20:33:55.595Z,5.85
2023-03-13T20:36:23.070Z,5.45
2023-03-13T20:38:50.050Z,6.22
2023-03-13T20:41:17.185Z,6.07
2023-03-13T20:43:44.096Z,6.18
2023-03-13T20:46:11.087Z,5.45
2023-03-13T20:48:39.636Z,5.50
2023-03-13T20:51:08.335Z,5.72
2023-03-13T20:53:37.163Z,5.03
2023-03-13T20:56:06.844Z,4.82
2023-03-13T20:58:35.026Z,5.25
2023-03-13T21:01:02.756Z,5.78
2023-03-13T21:03:31.815Z,5.38
2023-03-13T21:05:58.691Z,4.70
2023-03-13T21:08:25.649Z,4.95
2023-03-13T21:10:52.496Z,6.15
2023-03-13T21:13:19.428Z,6.20
2023-03-13T21:15:46.355Z,5.07
2023-03-13T21:18:13.267Z,4.68
2023-03-13T21:20:40.104Z,5.15
2023-03-13T21:23:07.020Z,5.70
2023-03-13T21:25:34.510Z,4.85
2023-03-13T21:28:01.413Z,5.18
2023-03-13T21:30:28.266Z,4.68
2023-03-13T21:32:55.309Z,4.20
2023-03-13T21:35:22.239Z,4.82
2023-03-13T21:37:49.133Z,5.07
2023-03-13T21:40:15.999Z,5.60
2023-03-13T21:42:43.015Z,4.32
2023-03-13T21:45:10.695Z,5.72
2023-03-13T21:47:37.675Z,5.00
2023-03-13T21:50:07.354Z,4.88
2023-03-13T21:52:40.631Z,5.25
2023-03-13T21:55:10.763Z,5.25
2023-03-13T21:57:37.592Z,4.03
2023-03-13T22:00:08.086Z,4.20
2023-03-13T22:02:37.104Z,5.40
2023-03-13T22:05:05.063Z,3.78
2023-03-13T22:07:32.098Z,3.65
2023-03-13T22:09:59.065Z,3.53
2023-03-13T22:12:26.756Z,2.28
2023-03-13T22:14:55.109Z,2.75
2023-03-13T22:17:23.334Z,2.60
2023-03-13T22:19:50.212Z,2.50
2023-03-13T22:22:17.376Z,1.85
2023-03-13T22:24:44.206Z,2.50
2023-03-13T22:27:11.224Z,3.30
2023-03-13T22:29:38.350Z,2.40
2023-03-13T22:32:05.622Z,2.40
2023-03-13T22:34:32.433Z,3.08
2023-03-13T22:36:59.383Z,2.67
2023-03-13T22:39:26.256Z,2.47
2023-03-13T22:41:53.113Z,2.67
2023-03-13T22:44:19.997Z,3.03
2023-03-13T22:46:46.972Z,2.67
2023-03-13T22:49:13.847Z,3.40
2023-03-13T22:51:40.708Z,2.00
2023-03-13T22:54:07.557Z,2.30
2023-03-13T22:56:34.523Z,2.60
2023-03-13T22:59:03.015Z,2.65
2023-03-13T23:01:30.099Z,2.42
2023-03-13T23:03:57.000Z,3.20
2023-03-13T23:06:25.647Z,2.92
2023-03-13T23:08:52.954Z,2.75
2023-03-13T23:11:20.749Z,2.90
2023-03-13T23:13:47.566Z,3.10
2023-03-13T23:16:15.064Z,2.70
2023-03-13T23:18:42.161Z,3.13
2023-03-13T23:21:11.896Z,2.70
2023-03-13T23:23:39.104Z,3.30
2023-03-13T23:26:09.746Z,2.83
2023-03-13T23:28:37.838Z,2.78
2023-03-13T23:31:19.742Z,2.95
2023-03-13T23:33:47.799Z,2.90
2023-03-13T23:36:17.629Z,2.97
2023-03-13T23:38:44.613Z,2.80
2023-03-13T23:41:13.457Z,2.63
2023-03-13T23:43:41.007Z,2.78
2023-03-13T23:46:19.535Z,2.50
2023-03-13T23:48:46.605Z,3.03
2023-03-13T23:51:13.733Z,3.05
2023-03-13T23:53:42.506Z,3.00
2023-03-13T23:56:10.814Z,2.75
2023-03-13T23:58:38.091Z,4.00
